Time;durP1;ratioP1;P1;durP2;ratioP2;P2;SDS_P1;SDS_P2;PMS_P1;PMS_P2;Temp;Humidity;BMP_temperature;BMP_pressure;BME280_temperature;BME280_humidity;BME280_pressure;Samples;Min_cycle;Max_cycle;Signal;HPM_P1;HPM_P2
2024/02/17 00:02:20;;;;;;;4.03;2.53;;;12.50;20.10;;;;;;5012636;28;20445;-70
2024/02/17 00:04:46;;;;;;;5.20;2.80;;;12.40;20.80;;;;;;5012555;28;20239;-69
2024/02/17 00:07:11;;;;;;;4.60;2.87;;;12.40;22.10;;;;;;5011405;28;20182;-69
2024/02/17 00:09:37;;;;;;;3.20;2.57;;;12.40;22.60;;;;;;4994588;28;20185;-69
2024/02/17 00:12:03;;;;;;;3.70;2.77;;;12.40;23.30;;;;;;5012462;28;20232;-69
2024/02/17 00:14:28;;;;;;;5.03;3.40;;;12.40;22.60;;;;;;5012547;28;20195;-69
2024/02/17 00:16:54;;;;;;;3.63;2.53;;;12.20;24.10;;;;;;5012433;28;20255;-69
2024/02/17 00:19:19;;;;;;;7.87;3.80;;;12.20;25.20;;;;;;5012076;28;20332;-69
2024/02/17 00:21:45;;;;;;;8.00;3.30;;;12.20;25.40;;;;;;5012155;28;20207;-69
2024/02/17 00:24:11;;;;;;;4.50;2.80;;;12.20;25.10;;;;;;5012190;28;20730;-70
2024/02/17 00:26:38;;;;;;;8.43;3.73;;;12.10;27.40;;;;;;5012222;28;20180;-69
2024/02/17 00:29:04;;;;;;;4.90;3.97;;;11.90;28.60;;;;;;5011892;28;20187;-69
2024/02/17 00:31:29;;;;;;;5.63;3.87;;;12.00;29.10;;;;;;5012202;28;20515;-68
2024/02/17 00:33:55;;;;;;;5.80;3.67;;;12.00;29.50;;;;;;4994622;28;20238;-68
2024/02/17 00:36:21;;;;;;;6.10;3.20;;;12.00;29.80;;;;;;5013397;28;20185;-69
2024/02/17 00:38:46;;;;;;;4.43;2.80;;;12.00;29.50;;;;;;5016191;28;20645;-70
2024/02/17 00:41:12;;;;;;;3.50;2.60;;;11.90;30.10;;;;;;5015972;28;20321;-70
2024/02/17 00:43:37;;;;;;;5.33;2.93;;;11.90;31.90;;;;;;5015076;28;20207;-69
2024/02/17 00:46:04;;;;;;;4.27;3.00;;;11.90;32.00;;;;;;5011703;28;20333;-69
2024/02/17 00:48:29;;;;;;;4.83;3.30;;;11.90;32.40;;;;;;5011886;28;20181;-69
2024/02/17 00:50:55;;;;;;;4.33;2.73;;;11.80;31.10;;;;;;5011719;28;20437;-69
2024/02/17 00:53:21;;;;;;;4.13;2.90;;;11.80;32.50;;;;;;5011688;28;20212;-69
2024/02/17 00:55:46;;;;;;;3.60;2.53;;;11.70;34.50;;;;;;5011703;28;20180;-68
2024/02/17 00:58:12;;;;;;;3.57;3.03;;;11.70;35.00;;;;;;5011591;28;20798;-69
2024/02/17 01:00:38;;;;;;;6.03;3.50;;;11.70;34.90;;;;;;5011719;28;20220;-69
2024/02/17 01:03:04;;;;;;;3.30;2.53;;;11.80;33.00;;;;;;5012112;28;20210;-69
2024/02/17 01:05:29;;;;;;;3.80;2.90;;;11.80;35.20;;;;;;5012107;28;20302;-69
2024/02/17 01:07:55;;;;;;;3.87;2.80;;;11.80;33.90;;;;;;5010102;28;20532;-68
2024/02/17 01:10:20;;;;;;;2.63;2.33;;;11.90;32.90;;;;;;5011326;28;20192;-69
2024/02/17 01:12:46;;;;;;;6.43;2.93;;;11.90;32.60;;;;;;5011464;28;20202;-69
2024/02/17 01:15:12;;;;;;;2.83;2.13;;;11.90;30.70;;;;;;5011628;28;20176;-70
2024/02/17 01:17:37;;;;;;;3.53;1.87;;;11.90;32.70;;;;;;5011493;28;20286;-69
2024/02/17 01:20:03;;;;;;;3.43;2.10;;;11.90;31.70;;;;;;5011066;28;20716;-68
2024/02/17 01:22:29;;;;;;;3.20;2.30;;;11.90;31.00;;;;;;4993756;28;20207;-69
2024/02/17 01:24:54;;;;;;;2.90;1.60;;;11.90;30.30;;;;;;5011388;28;20460;-69
2024/02/17 01:27:20;;;;;;;3.50;1.57;;;11.90;30.00;;;;;;5011468;28;20184;-70
2024/02/17 01:29:46;;;;;;;2.83;1.50;;;11.90;29.90;;;;;;5011250;28;20549;-70
2024/02/17 01:32:11;;;;;;;2.40;1.43;;;11.90;30.10;;;;;;5011254;28;20527;-70
2024/02/17 01:34:37;;;;;;;4.03;1.87;;;11.80;31.90;;;;;;5011416;28;20185;-70
2024/02/17 01:37:03;;;;;;;3.03;1.30;;;11.90;29.90;;;;;;5011477;28;20192;-69
2024/02/17 01:39:28;;;;;;;2.80;1.60;;;11.90;30.00;;;;;;5011430;28;20184;-69
2024/02/17 01:41:55;;;;;;;2.03;1.37;;;11.90;29.80;;;;;;5011130;28;20223;-69
2024/02/17 01:44:20;;;;;;;2.00;1.30;;;12.00;29.40;;;;;;5011453;28;20465;-69
2024/02/17 01:46:50;;;;;;;3.20;1.40;;;11.90;28.70;;;;;;5011495;28;20418;-69
2024/02/17 01:49:15;;;;;;;2.50;1.20;;;11.90;28.60;;;;;;5011327;28;20211;-68
2024/02/17 01:51:41;;;;;;;4.50;1.20;;;11.90;28.40;;;;;;5011093;28;20468;-70
2024/02/17 01:54:08;;;;;;;3.20;1.30;;;12.00;28.90;;;;;;5011386;28;20194;-70
2024/02/17 01:56:35;;;;;;;2.70;1.90;;;12.00;28.10;;;;;;5011428;28;20481;-70
2024/02/17 01:59:01;;;;;;;2.33;1.23;;;12.00;28.10;;;;;;5013146;28;20494;-70
2024/02/17 02:01:28;;;;;;;2.60;1.30;;;12.10;28.20;;;;;;5015018;28;20480;-70
2024/02/17 02:03:53;;;;;;;3.23;1.60;;;12.10;28.20;;;;;;5014608;28;20554;-70
2024/02/17 02:06:22;;;;;;;3.30;1.87;;;12.10;27.00;;;;;;5014989;28;20415;-70
2024/02/17 02:08:49;;;;;;;3.30;1.50;;;12.20;26.60;;;;;;5015008;28;20526;-70
2024/02/17 02:11:15;;;;;;;3.73;1.37;;;12.20;25.40;;;;;;5015799;28;20858;-70
2024/02/17 02:13:41;;;;;;;2.60;1.33;;;12.10;26.30;;;;;;5015209;28;20440;-70
2024/02/17 02:16:07;;;;;;;3.93;1.23;;;12.10;26.60;;;;;;5014779;28;20790;-70
2024/02/17 02:18:33;;;;;;;1.90;1.10;;;12.10;26.90;;;;;;5014327;28;20185;-70
2024/02/17 02:20:59;;;;;;;1.90;1.20;;;12.20;26.10;;;;;;5014587;28;20535;-70
2024/02/17 02:23:25;;;;;;;1.80;0.97;;;12.20;25.70;;;;;;5014603;28;20463;-70
2024/02/17 02:25:54;;;;;;;2.00;1.03;;;12.10;26.30;;;;;;5014423;28;20422;-69
2024/02/17 02:28:21;;;;;;;2.13;1.20;;;12.20;26.20;;;;;;5014179;28;20187;-70
2024/02/17 02:30:47;;;;;;;2.40;1.17;;;12.20;25.20;;;;;;5014203;28;20418;-69
2024/02/17 02:33:12;;;;;;;8.27;1.50;;;12.20;25.60;;;;;;5014597;28;20442;-70
2024/02/17 02:35:38;;;;;;;1.90;0.90;;;12.20;24.90;;;;;;5014292;28;20180;-70
2024/02/17 02:38:04;;;;;;;2.43;1.00;;;12.20;24.90;;;;;;5014129;28;20248;-70
2024/02/17 02:40:30;;;;;;;1.80;0.97;;;12.10;26.00;;;;;;5014323;28;20616;-71
2024/02/17 02:42:58;;;;;;;2.30;1.43;;;12.20;25.60;;;;;;5014368;28;20538;-70
2024/02/17 02:45:23;;;;;;;2.67;1.17;;;12.20;25.80;;;;;;5013909;28;20722;-71
2024/02/17 02:47:49;;;;;;;2.17;1.00;;;12.20;25.60;;;;;;5013956;28;20517;-70
2024/02/17 02:50:15;;;;;;;1.87;0.80;;;12.10;25.90;;;;;;5013994;28;20194;-70
2024/02/17 02:52:40;;;;;;;3.20;0.90;;;12.20;25.30;;;;;;5013749;28;20952;-70
2024/02/17 02:55:06;;;;;;;2.07;0.80;;;12.20;25.60;;;;;;5013819;28;20190;-69
2024/02/17 02:57:32;;;;;;;1.80;0.87;;;12.30;24.40;;;;;;5013750;28;20180;-70
2024/02/17 02:59:58;;;;;;;2.10;0.97;;;12.20;26.10;;;;;;5013889;28;20229;-70
2024/02/17 03:02:24;;;;;;;2.07;1.03;;;12.10;27.00;;;;;;5013575;28;20211;-69
2024/02/17 03:04:52;;;;;;;1.80;0.90;;;12.00;28.50;;;;;;5013858;28;20472;-69
2024/02/17 03:07:18;;;;;;;1.90;0.83;;;12.00;29.90;;;;;;5013708;28;20422;-68
2024/02/17 03:09:43;;;;;;;3.10;1.33;;;12.00;31.60;;;;;;5013199;28;20419;-68
2024/02/17 03:12:09;;;;;;;2.10;1.03;;;12.00;31.90;;;;;;5013502;28;20205;-69
2024/02/17 03:14:36;;;;;;;2.20;1.07;;;12.00;32.70;;;;;;5013469;28;20632;-70
2024/02/17 03:17:05;;;;;;;2.43;1.13;;;11.90;32.70;;;;;;5013312;28;20179;-69
2024/02/17 03:19:31;;;;;;;2.90;1.43;;;11.90;33.70;;;;;;5013409;28;20423;-69
2024/02/17 03:21:56;;;;;;;3.60;1.73;;;11.90;34.50;;;;;;5013228;28;20531;-70
2024/02/17 03:24:22;;;;;;;2.40;1.30;;;11.80;35.50;;;;;;5013016;28;20314;-69
2024/02/17 03:26:49;;;;;;;2.60;1.27;;;11.90;36.40;;;;;;5013052;28;20187;-69
2024/02/17 03:29:15;;;;;;;2.50;1.20;;;11.90;34.20;;;;;;5012876;28;20419;-69
2024/02/17 03:31:41;;;;;;;3.50;1.40;;;11.90;35.60;;;;;;5012906;28;20511;-70
2024/02/17 03:34:06;;;;;;;2.37;1.40;;;11.90;35.40;;;;;;5013145;28;20237;-69
2024/02/17 03:36:35;;;;;;;1.87;1.13;;;11.90;35.50;;;;;;5012880;28;20194;-70
2024/02/17 03:39:08;;;;;;;2.17;1.40;;;12.00;36.00;;;;;;5012699;28;20196;-70
2024/02/17 03:41:35;;;;;;;3.80;1.60;;;12.00;35.30;;;;;;5012856;28;20889;-68
2024/02/17 03:44:02;;;;;;;2.07;1.40;;;11.90;34.40;;;;;;5012689;28;20931;-69
2024/02/17 03:46:27;;;;;;;2.33;1.83;;;11.80;36.90;;;;;;5012873;28;20410;-69
2024/02/17 03:48:53;;;;;;;4.50;2.00;;;11.80;37.80;;;;;;5012485;28;20471;-69
2024/02/17 03:51:19;;;;;;;3.13;2.70;;;11.60;40.40;;;;;;5012620;28;20204;-70
2024/02/17 03:53:46;;;;;;;3.80;2.43;;;11.40;39.50;;;;;;5012451;28;20214;-69
2024/02/17 03:56:14;;;;;;;5.03;3.70;;;11.20;38.60;;;;;;5011138;28;20550;-70
2024/02/17 03:58:39;;;;;;;6.03;4.07;;;11.00;40.00;;;;;;5012415;28;20727;-70
2024/02/17 04:01:05;;;;;;;7.60;4.50;;;10.80;39.50;;;;;;5012575;28;20417;-71
2024/02/17 04:03:31;;;;;;;5.70;4.53;;;10.70;40.80;;;;;;5012506;28;20689;-70
2024/02/17 04:05:56;;;;;;;6.63;4.80;;;10.60;41.90;;;;;;5012418;28;20176;-70
2024/02/17 04:08:22;;;;;;;6.37;5.00;;;10.50;42.60;;;;;;5012189;28;20399;-69
2024/02/17 04:10:48;;;;;;;7.10;6.40;;;10.50;44.00;;;;;;4994697;28;20179;-69
2024/02/17 04:13:13;;;;;;;7.43;5.43;;;10.50;43.20;;;;;;5011932;28;20196;-69
2024/02/17 04:15:39;;;;;;;6.27;4.80;;;10.40;43.10;;;;;;5012007;28;20184;-70
2024/02/17 04:18:08;;;;;;;8.10;5.10;;;10.40;43.90;;;;;;5011963;28;20246;-70
2024/02/17 04:20:37;;;;;;;6.43;4.97;;;10.40;44.40;;;;;;5011527;28;20266;-70
2024/02/17 04:23:03;;;;;;;6.97;5.53;;;10.50;44.70;;;;;;5011842;28;20475;-70
2024/02/17 04:25:29;;;;;;;7.10;5.10;;;10.50;45.00;;;;;;5012101;28;20461;-69
2024/02/17 04:27:54;;;;;;;6.73;4.73;;;10.50;45.10;;;;;;5011852;28;20419;-69
2024/02/17 04:30:20;;;;;;;7.90;5.20;;;10.50;44.40;;;;;;5011621;28;20171;-69
2024/02/17 04:32:45;;;;;;;6.83;5.70;;;10.60;43.50;;;;;;5011948;28;20191;-69
2024/02/17 04:35:11;;;;;;;7.17;5.37;;;10.60;43.20;;;;;;5012367;28;20194;-69
2024/02/17 04:37:37;;;;;;;9.40;5.90;;;10.70;41.90;;;;;;5011696;28;20196;-70
2024/02/17 04:40:03;;;;;;;6.77;5.43;;;10.70;41.10;;;;;;5011539;28;20177;-69
2024/02/17 04:42:28;;;;;;;11.77;5.77;;;10.60;39.00;;;;;;5011693;28;20441;-70
2024/02/17 04:44:54;;;;;;;7.90;5.80;;;10.60;39.90;;;;;;5011709;28;20470;-69
2024/02/17 04:47:19;;;;;;;9.27;5.43;;;10.50;40.80;;;;;;5011745;28;20168;-70
2024/02/17 04:49:45;;;;;;;7.80;6.40;;;10.50;41.70;;;;;;5011578;28;20230;-69
2024/02/17 04:52:10;;;;;;;7.07;5.00;;;10.50;41.70;;;;;;5011987;28;20207;-70
2024/02/17 04:54:36;;;;;;;10.60;5.60;;;10.50;43.20;;;;;;5013737;28;20262;-70
2024/02/17 04:57:02;;;;;;;10.50;6.63;;;10.50;41.70;;;;;;5013502;28;20180;-70
2024/02/17 04:59:27;;;;;;;9.73;6.87;;;10.50;42.80;;;;;;5013664;28;20179;-69
2024/02/17 05:01:53;;;;;;;6.90;6.13;;;10.50;43.10;;;;;;5012148;28;20643;-69
2024/02/17 05:04:18;;;;;;;9.83;6.73;;;10.50;41.70;;;;;;5011612;28;20304;-70
2024/02/17 05:06:47;;;;;;;8.57;6.33;;;10.50;43.00;;;;;;5011615;28;20673;-69
2024/02/17 05:09:13;;;;;;;7.50;5.70;;;10.50;42.50;;;;;;5009679;28;20187;-69
2024/02/17 05:11:40;;;;;;;9.43;6.77;;;10.60;41.90;;;;;;5011128;28;20509;-69
2024/02/17 05:14:06;;;;;;;9.47;6.57;;;10.50;41.80;;;;;;5011496;28;20207;-71
2024/02/17 05:16:32;;;;;;;10.40;6.53;;;10.60;42.30;;;;;;5011598;28;20430;-68
2024/02/17 05:18:57;;;;;;;7.87;6.03;;;10.60;42.30;;;;;;5011019;28;20419;-69
2024/02/17 05:21:23;;;;;;;10.73;7.20;;;10.60;40.60;;;;;;5011376;28;20190;-69
2024/02/17 05:23:49;;;;;;;9.30;5.73;;;10.50;40.50;;;;;;5011176;28;20438;-70
2024/02/17 05:26:14;;;;;;;8.60;6.40;;;10.50;41.00;;;;;;5011102;28;20264;-71
2024/02/17 05:28:40;;;;;;;9.13;5.70;;;10.50;42.50;;;;;;5011349;28;20168;-69
2024/02/17 05:31:23;;;;;;;10.13;7.00;;;10.50;41.70;;;;;;5010939;28;20226;-70
2024/02/17 05:33:48;;;;;;;11.60;8.73;;;10.50;43.30;;;;;;5014625;28;20196;-70
2024/02/17 05:36:14;;;;;;;12.87;7.80;;;10.50;41.70;;;;;;5015240;28;20821;-69
2024/02/17 05:38:39;;;;;;;9.50;7.50;;;10.50;44.20;;;;;;5014764;28;20259;-70
2024/02/17 05:41:05;;;;;;;10.63;6.80;;;10.50;43.60;;;;;;5015296;28;20180;-70
2024/02/17 05:43:30;;;;;;;11.73;8.03;;;10.50;43.90;;;;;;5014845;28;20223;-70
2024/02/17 05:45:56;;;;;;;10.20;7.53;;;10.50;42.60;;;;;;5014943;28;20187;-69
2024/02/17 05:48:21;;;;;;;12.37;8.87;;;10.50;41.80;;;;;;5014525;28;20179;-69
2024/02/17 05:50:47;;;;;;;11.83;7.70;;;10.50;42.30;;;;;;5014939;28;20176;-70
2024/02/17 05:53:13;;;;;;;12.30;8.80;;;10.50;41.80;;;;;;5014525;28;20247;-70
2024/02/17 05:55:38;;;;;;;11.37;8.10;;;10.50;42.70;;;;;;5015454;28;20239;-70
2024/02/17 05:58:04;;;;;;;15.87;8.43;;;10.60;41.80;;;;;;5014783;28;20454;-70
2024/02/17 06:00:30;;;;;;;13.77;9.20;;;10.50;41.80;;;;;;5014672;28;20550;-69
2024/02/17 06:02:56;;;;;;;10.53;7.87;;;;;;;;;;5014582;28;20281;-70
2024/02/17 06:05:22;;;;;;;12.57;8.87;;;;;;;;;;5014384;28;20581;-69
2024/02/17 06:07:48;;;;;;;11.30;7.87;;;10.50;41.90;;;;;;5014444;28;20792;-69
2024/02/17 06:10:14;;;;;;;10.80;7.97;;;10.50;43.10;;;;;;5014438;28;20425;-68
2024/02/17 06:12:39;;;;;;;9.73;6.60;;;10.60;43.40;;;;;;5014635;28;20266;-70
2024/02/17 06:15:05;;;;;;;16.50;9.30;;;10.60;41.90;;;;;;5014967;28;20183;-70
2024/02/17 06:17:33;;;;;;;13.27;9.07;;;10.60;41.80;;;;;;5014734;28;20214;-70
2024/02/17 06:22:42;;;;;;;12.10;8.43;;;10.50;42.90;;;;;;5014569;28;20514;-70
2024/02/17 06:25:08;;;;;;;11.97;8.20;;;10.60;43.10;;;;;;5014152;28;21052;-70
2024/02/17 06:27:34;;;;;;;11.33;8.50;;;10.60;43.70;;;;;;5014421;28;20176;-70
2024/02/17 06:30:00;;;;;;;14.17;9.77;;;10.60;43.00;;;;;;5014068;28;20258;-69
2024/02/17 06:32:25;;;;;;;12.53;8.90;;;10.60;41.80;;;;;;5013955;28;20664;-71
2024/02/17 06:34:51;;;;;;;12.47;8.83;;;10.50;42.60;;;;;;5014120;28;20434;-69
2024/02/17 06:37:16;;;;;;;12.80;9.27;;;10.50;44.00;;;;;;5014925;28;20191;-69
2024/02/17 06:39:42;;;;;;;12.23;7.53;;;10.60;43.70;;;;;;5013858;28;20376;-69
2024/02/17 06:42:07;;;;;;;11.93;8.00;;;10.60;44.10;;;;;;5013975;28;20204;-70
2024/02/17 06:44:33;;;;;;;15.37;9.60;;;10.60;41.80;;;;;;5013235;28;20254;-70
2024/02/17 06:46:58;;;;;;;11.70;8.50;;;10.50;43.00;;;;;;5012662;28;20183;-70
2024/02/17 06:49:24;;;;;;;12.07;8.43;;;10.50;41.70;;;;;;5013824;28;20218;-69
2024/02/17 06:51:49;;;;;;;13.63;9.57;;;10.50;42.60;;;;;;5013896;28;20172;-69
2024/02/17 06:54:15;;;;;;;15.33;9.67;;;10.60;42.30;;;;;;5014094;28;20324;-69
2024/02/17 06:56:40;;;;;;;12.63;9.63;;;10.50;41.70;;;;;;5012762;28;20319;-69
2024/02/17 06:59:06;;;;;;;16.73;10.43;;;10.60;41.80;;;;;;5013753;28;20207;-70
2024/02/17 07:01:31;;;;;;;16.97;8.70;;;10.60;41.80;;;;;;5014316;28;20183;-69
2024/02/17 07:03:58;;;;;;;15.53;10.80;;;10.60;41.40;;;;;;5013719;28;20203;-70
2024/02/17 07:06:23;;;;;;;11.63;8.33;;;10.70;40.80;;;;;;5014134;28;20231;-70
2024/02/17 07:08:49;;;;;;;12.80;8.80;;;10.70;39.40;;;;;;5013488;28;20411;-69
2024/02/17 07:11:15;;;;;;;12.40;8.90;;;10.70;39.30;;;;;;5013491;28;20238;-69
2024/02/17 07:13:43;;;;;;;14.20;9.50;;;10.70;39.00;;;;;;5013628;28;20538;-69
2024/02/17 07:16:09;;;;;;;13.70;10.40;;;10.70;38.80;;;;;;5013536;28;20422;-70
2024/02/17 07:18:34;;;;;;;12.50;9.93;;;10.80;39.40;;;;;;5012978;28;20417;-70
2024/02/17 07:21:00;;;;;;;15.57;11.43;;;10.70;39.70;;;;;;5013203;28;20411;-69
2024/02/17 07:23:30;;;;;;;15.40;11.27;;;10.70;38.60;;;;;;4999948;28;20275;-70
2024/02/17 07:25:56;;;;;;;14.37;9.47;;;10.80;39.40;;;;;;4993556;28;20288;-70
2024/02/17 07:28:22;;;;;;;13.37;9.93;;;10.80;39.30;;;;;;4993629;28;20665;-69
2024/02/17 07:30:47;;;;;;;13.20;9.17;;;10.80;38.80;;;;;;4993520;28;20409;-70
2024/02/17 07:33:14;;;;;;;17.23;11.03;;;10.80;38.20;;;;;;4994223;28;20196;-70
2024/02/17 07:35:42;;;;;;;11.90;8.90;;;10.70;38.10;;;;;;4993523;28;20205;-68
2024/02/17 07:38:08;;;;;;;11.70;9.37;;;10.60;38.50;;;;;;4993375;28;20419;-69
2024/02/17 07:40:34;;;;;;;14.67;9.80;;;10.60;36.70;;;;;;4975725;28;20425;-69
2024/02/17 07:42:59;;;;;;;16.97;12.57;;;10.70;36.80;;;;;;4993360;28;20424;-69
2024/02/17 07:45:26;;;;;;;15.20;10.50;;;10.70;34.70;;;;;;4993303;28;20307;-69
2024/02/17 07:47:51;;;;;;;15.03;10.57;;;10.60;35.30;;;;;;4993159;28;20541;-71
2024/02/17 07:50:17;;;;;;;16.33;9.97;;;10.70;36.40;;;;;;4992878;28;20507;-70
2024/02/17 07:52:42;;;;;;;14.13;9.73;;;10.80;35.40;;;;;;4992137;28;20234;-70
2024/02/17 07:55:08;;;;;;;11.00;8.53;;;10.80;35.10;;;;;;4992438;28;20189;-69
2024/02/17 07:57:35;;;;;;;16.23;9.87;;;10.80;34.10;;;;;;4992346;28;20248;-69
2024/02/17 08:00:02;;;;;;;16.40;10.23;;;10.90;34.10;;;;;;4991533;28;20279;-69
2024/02/17 08:02:27;;;;;;;13.90;9.70;;;10.90;30.60;;;;;;4991560;28;20467;-70
2024/02/17 08:04:54;;;;;;;15.07;10.40;;;10.90;31.90;;;;;;4991858;28;20886;-69
2024/02/17 08:07:19;;;;;;;11.53;7.90;;;10.90;31.10;;;;;;4989982;28;20180;-69
2024/02/17 08:09:47;;;;;;;14.10;9.50;;;11.00;31.00;;;;;;4990688;28;20450;-69
2024/02/17 08:12:13;;;;;;;11.20;8.30;;;11.00;31.80;;;;;;4991203;28;20222;-68
2024/02/17 08:14:40;;;;;;;16.33;10.43;;;11.00;30.60;;;;;;4992215;28;20427;-69
2024/02/17 08:17:06;;;;;;;11.50;9.17;;;11.00;29.50;;;;;;4992361;28;20270;-69
2024/02/17 08:19:32;;;;;;;13.83;9.47;;;11.10;29.90;;;;;;4992208;28;20994;-69
2024/02/17 08:21:57;;;;;;;13.43;9.83;;;11.20;28.20;;;;;;4992219;28;20436;-69
2024/02/17 08:24:23;;;;;;;13.37;8.93;;;11.10;27.50;;;;;;4992270;28;20699;-69
2024/02/17 08:26:48;;;;;;;12.83;9.57;;;11.10;27.90;;;;;;4992537;28;20531;-69
2024/02/17 08:29:14;;;;;;;15.40;10.60;;;11.10;27.50;;;;;;4992147;28;20686;-68
2024/02/17 08:31:46;;;;;;;15.03;10.50;;;11.10;27.20;;;;;;4992038;28;20517;-69
2024/02/17 08:34:12;;;;;;;16.80;11.13;;;11.00;27.50;;;;;;4992459;28;20177;-70
2024/02/17 08:36:38;;;;;;;15.43;9.23;;;11.00;28.20;;;;;;4992451;28;20420;-70
2024/02/17 08:39:04;;;;;;;15.33;11.30;;;11.00;28.80;;;;;;4992102;28;20184;-69
2024/02/17 08:41:30;;;;;;;14.20;11.17;;;11.10;26.50;;;;;;4992161;28;20424;-68
2024/02/17 08:43:56;;;;;;;14.93;11.17;;;11.20;24.80;;;;;;4991884;28;20219;-69
2024/02/17 08:46:21;;;;;;;19.30;12.93;;;11.40;23.10;;;;;;4992257;28;20903;-69
2024/02/17 08:48:47;;;;;;;18.70;12.20;;;11.60;21.10;;;;;;4992060;28;20175;-70
2024/02/17 08:51:12;;;;;;;17.47;10.87;;;11.80;19.30;;;;;;4991930;28;20272;-69
2024/02/17 08:53:39;;;;;;;14.40;10.83;;;11.90;18.10;;;;;;4991794;28;20321;-69
2024/02/17 08:56:05;;;;;;;15.90;12.57;;;12.20;16.60;;;;;;4991844;28;20505;-68
2024/02/17 08:58:30;;;;;;;17.53;11.77;;;12.60;13.00;;;;;;4991408;28;20215;-69
2024/02/17 09:00:57;;;;;;;16.30;10.87;;;12.70;11.30;;;;;;5006319;28;20184;-69
2024/02/17 09:03:23;;;;;;;15.43;10.97;;;12.90;10.60;;;;;;5011654;28;20243;-69
2024/02/17 09:05:48;;;;;;;13.93;10.93;;;13.10;10.40;;;;;;5015293;28;20470;-69
2024/02/17 09:08:14;;;;;;;16.20;11.63;;;13.30;7.30;;;;;;4999269;28;20517;-74
2024/02/17 09:10:39;;;;;;;12.03;9.30;;;13.20;6.80;;;;;;4997782;28;20168;-70
2024/02/17 09:13:05;;;;;;;14.10;9.80;;;13.20;6.00;;;;;;4996238;28;20206;-69
2024/02/17 09:15:31;;;;;;;14.13;10.67;;;13.10;4.70;;;;;;5013447;28;20183;-68
2024/02/17 09:17:56;;;;;;;11.97;8.40;;;13.10;5.60;;;;;;5031049;28;20284;-68
2024/02/17 09:20:22;;;;;;;15.77;11.37;;;13.20;4.00;;;;;;5030595;28;20493;-69
2024/02/17 09:22:48;;;;;;;14.47;9.40;;;;;;;;;;5030360;28;20199;-69
2024/02/17 09:25:14;;;;;;;13.40;9.93;;;;;;;;;;5030366;28;20194;-69
2024/02/17 09:27:40;;;;;;;15.73;11.13;;;;;;;;;;5029490;28;20435;-69
2024/02/17 09:30:07;;;;;;;11.07;8.00;;;;;;;;;;5015581;28;20880;-69
2024/02/17 09:32:32;;;;;;;17.37;9.70;;;;;;;;;;5011356;28;20434;-69
2024/02/17 09:34:58;;;;;;;11.37;7.63;;;;;;;;;;5014817;28;20467;-70
2024/02/17 09:37:25;;;;;;;13.27;9.27;;;;;;;;;;5010791;28;20861;-69
2024/02/17 09:39:51;;;;;;;15.63;9.20;;;;;;;;;;5010650;28;20494;-69
2024/02/17 09:42:17;;;;;;;13.30;7.83;;;;;;;;;;5011069;28;20433;-70
2024/02/17 09:44:43;;;;;;;13.70;9.60;;;;;;;;;;5011817;28;20473;-70
2024/02/17 09:47:09;;;;;;;13.00;8.20;;;;;;;;;;5010899;28;20800;-70
2024/02/17 09:49:36;;;;;;;13.57;8.33;;;;;;;;;;5010936;28;20425;-70
2024/02/17 09:52:02;;;;;;;14.73;9.37;;;;;;;;;;5010541;28;20536;-69
2024/02/17 09:54:28;;;;;;;9.00;7.37;;;;;;;;;;5010966;28;20791;-70
2024/02/17 09:56:55;;;;;;;11.40;8.37;;;;;;;;;;5010751;28;20445;-70
2024/02/17 09:59:21;;;;;;;11.20;8.53;;;;;;;;;;5010510;28;20418;-70
2024/02/17 10:01:47;;;;;;;14.10;7.37;;;;;;;;;;5010628;28;20414;-69
2024/02/17 10:04:13;;;;;;;12.30;8.87;;;;;;;;;;5010942;28;20462;-70
2024/02/17 10:06:41;;;;;;;8.40;6.73;;;;;;;;;;5010884;28;20411;-69
2024/02/17 10:09:07;;;;;;;10.97;8.00;;;;;;;;;;5010417;28;20402;-70
2024/02/17 10:11:33;;;;;;;8.73;6.67;;;;;;;;;;5010681;28;20490;-69
2024/02/17 10:13:59;;;;;;;12.13;8.00;;;;;;;;;;5008085;28;20462;-68
2024/02/17 10:16:26;;;;;;;10.37;7.50;;;;;;;;;;5001801;28;20449;-69
2024/02/17 10:18:53;;;;;;;11.00;8.30;;;;;;;;;;5028527;28;20477;-69
2024/02/17 10:21:23;;;;;;;13.70;8.30;;;;;;;;;;5021826;28;20997;-69
2024/02/17 10:23:49;;;;;;;10.10;7.57;;;;;;;;;;5015553;28;20480;-69
2024/02/17 10:26:15;;;;;;;13.23;8.33;;;;;;;;;;5033586;28;20425;-69
2024/02/17 10:28:41;;;;;;;11.17;7.90;;;;;;;;;;5033412;28;20504;-70
2024/02/17 10:31:08;;;;;;;11.90;8.37;;;;;;;;;;5033330;28;20931;-70
2024/02/17 10:33:35;;;;;;;11.30;6.87;;;;;;;;;;5020692;28;20464;-69
2024/02/17 10:36:01;;;;;;;11.87;8.47;;;;;;;;;;5033561;28;20420;-69
2024/02/17 10:38:27;;;;;;;9.50;7.80;;;;;;;;;;5033382;28;20413;-69
2024/02/17 10:40:53;;;;;;;9.40;7.30;;;;;;;;;;5033185;28;20415;-70
2024/02/17 10:43:19;;;;;;;8.00;5.40;;;;;;;;;;5033439;28;20515;-69
2024/02/17 10:45:48;;;;;;;11.50;6.80;;;;;;;;;;5033439;28;20536;-68
2024/02/17 10:48:15;;;;;;;6.87;5.73;;;;;;;;;;5031744;28;20418;-70
2024/02/17 10:50:44;;;;;;;8.13;7.20;;;;;;;;;;5030702;28;20488;-69
2024/02/17 10:53:22;;;;;;;11.27;6.27;;;;;;;;;;5032889;28;20464;-69
2024/02/17 10:55:53;;;;;;;9.03;6.00;;;;;;;;;;5033155;28;20441;-69
2024/02/17 10:58:21;;;;;;;7.80;6.00;;;;;;;;;;5033025;28;20422;-69
2024/02/17 11:00:48;;;;;;;9.37;6.87;;;;;;;;;;5032633;28;20503;-68
2024/02/17 11:03:15;;;;;;;9.10;5.47;;;;;;;;;;5019383;28;20457;-70
2024/02/17 11:05:42;;;;;;;7.80;6.20;;;;;;;;;;5013156;28;20485;-69
2024/02/17 11:08:09;;;;;;;8.70;6.90;;;;;;;;;;5013107;28;20411;-70
2024/02/17 11:10:35;;;;;;;10.60;7.17;;;;;;;;;;5013100;28;20978;-69
2024/02/17 11:13:02;;;;;;;9.50;6.30;;;;;;;;;;5032853;28;20426;-69
2024/02/17 11:15:28;;;;;;;12.33;6.47;;;;;;;;;;5032920;28;20827;-70
2024/02/17 11:17:58;;;;;;;9.70;6.57;;;;;;;;;;5032221;28;20477;-70
2024/02/17 11:20:25;;;;;;;9.43;6.70;;;;;;;;;;5032710;28;20413;-68
2024/02/17 11:22:52;;;;;;;6.97;4.97;;;;;;;;;;5032708;28;20475;-70
2024/02/17 11:25:38;;;;;;;6.63;5.60;;;;;;;;;;5032574;28;20501;-69
2024/02/17 11:28:17;;;;;;;5.77;4.60;;;;;;;;;;5014658;28;20464;-69
2024/02/17 11:30:47;;;;;;;7.17;5.53;;;;;;;;;;5032383;28;20444;-70
2024/02/17 11:33:15;;;;;;;6.17;4.67;;;;;;;;;;5015279;28;20433;-69
2024/02/17 11:35:42;;;;;;;5.80;5.03;;;;;;;;;;5012776;28;20497;-70
2024/02/17 11:38:08;;;;;;;6.70;5.10;;;;;;;;;;5012504;28;20442;-69
2024/02/17 11:40:34;;;;;;;7.13;5.80;;;;;;;;;;5012445;28;20454;-69
2024/02/17 11:43:01;;;;;;;6.10;5.00;;;;;;;;;;5012456;28;20485;-69
2024/02/17 11:45:27;;;;;;;5.50;4.77;;;;;;;;;;5012465;28;20519;-69
2024/02/17 11:47:53;;;;;;;6.80;4.67;;;;;;;;;;5017843;28;20435;-69
2024/02/17 11:50:19;;;;;;;7.77;4.60;;;;;;;;;;5031893;28;20432;-70
2024/02/17 11:52:45;;;;;;;5.53;4.37;;;;;;;;;;5014214;28;20454;-69
2024/02/17 11:55:11;;;;;;;5.97;5.07;;;;;;;;;;5012498;28;20474;-68
2024/02/17 11:57:39;;;;;;;7.50;5.40;;;;;;;;;;5012507;28;20840;-69
2024/02/17 12:00:09;;;;;;;4.60;3.87;;;;;;;;;;5012155;28;20555;-69
2024/02/17 12:02:35;;;;;;;8.23;5.27;;;;;;;;;;5014221;28;20442;-69
2024/02/17 12:05:01;;;;;;;6.07;4.73;;;;;;;;;;5032112;28;20771;-69
2024/02/17 12:07:30;;;;;;;8.60;5.13;;;;;;;;;;5025837;28;20497;-69
2024/02/17 12:09:56;;;;;;;8.43;5.40;;;;;;;;;;4991845;28;20408;-68
2024/02/17 12:12:22;;;;;;;8.67;4.80;;;;;;;;;;4992648;28;20423;-70
2024/02/17 12:14:51;;;;;;;8.33;6.47;;;;;;;;;;4996300;28;20449;-70
2024/02/17 12:17:18;;;;;;;6.80;5.27;;;;;;;;;;5012568;28;20940;-70
2024/02/17 12:19:44;;;;;;;8.17;5.07;;;;;;;;;;5011741;28;20415;-69
2024/02/17 12:22:11;;;;;;;8.80;4.40;;;;;;;;;;5012165;28;20461;-69
2024/02/17 12:24:37;;;;;;;5.63;4.77;;;;;;;;;;5012111;28;20770;-68
2024/02/17 12:27:03;;;;;;;6.80;5.07;;;;;;;;;;4998713;28;20478;-69
2024/02/17 12:29:30;;;;;;;6.17;4.90;;;;;;;;;;5006422;28;20418;-69
2024/02/17 12:31:56;;;;;;;8.37;4.73;;;;;;;;;;5032449;28;20433;-70
2024/02/17 12:34:27;;;;;;;6.37;4.23;;;;;;;;;;5013944;28;20430;-70
2024/02/17 12:36:53;;;;;;;5.67;4.00;;;;;;;;;;5031429;28;20730;-68
2024/02/17 12:39:19;;;;;;;5.57;3.40;;;;;;;;;;5030855;28;20927;-68
2024/02/17 12:41:45;;;;;;;4.30;3.27;;;;;;;;;;5012796;28;20888;-68
2024/02/17 12:44:14;;;;;;;7.33;4.60;;;;;;;;;;5020794;28;20463;-70
2024/02/17 12:46:40;;;;;;;4.67;3.43;;;;;;;;;;5011507;28;20414;-69
2024/02/17 12:49:06;;;;;;;7.70;3.73;;;;;;;;;;5011269;28;20494;-69
2024/02/17 12:51:34;;;;;;;6.00;4.40;;;;;;;;;;5011462;28;20409;-69
2024/02/17 12:54:00;;;;;;;4.53;2.90;;;;;;;;;;5011363;28;20479;-68
2024/02/17 12:56:26;;;;;;;7.43;4.03;;;;;;;;;;5011372;28;20889;-69
2024/02/17 12:58:52;;;;;;;3.23;2.93;;;;;;;;;;5024755;28;20941;-69
2024/02/17 13:01:18;;;;;;;4.50;3.13;;;;;;;;;;5031196;28;20420;-69
2024/02/17 13:03:45;;;;;;;7.70;5.17;;;;;;;;;;5000702;28;20890;-70
2024/02/17 13:06:11;;;;;;;12.00;5.80;;;;;;;;;;4991903;28;20492;-69
2024/02/17 13:08:37;;;;;;;6.83;4.23;;;;;;;;;;4991612;28;20458;-70
2024/02/17 13:11:03;;;;;;;3.60;2.43;;;;;;;;;;4991632;28;20766;-69